Time;durP1;ratioP1;P1;durP2;ratioP2;P2;SDS_P1;SDS_P2;PMS_P1;PMS_P2;Temp;Humidity;BMP_temperature;BMP_pressure;BME280_temperature;BME280_humidity;BME280_pressure;Samples;Min_cycle;Max_cycle;Signal;HPM_P1;HPM_P2
2023/02/14 00:00:53;;;;;;;43.43;28.03;;;;;;;2.04;50.98;100999.28;5013671;28;20096;-80
2023/02/14 00:03:18;;;;;;;61.77;36.00;;;;;;;1.74;50.95;100976.69;5012849;28;20089;-80
2023/02/14 00:05:43;;;;;;;48.47;31.00;;;;;;;1.51;51.28;100932.88;5015229;28;20097;-80
2023/02/14 00:08:09;;;;;;;49.97;30.37;;;;;;;1.91;51.21;101013.03;5014193;28;20033;-80
2023/02/14 00:10:34;;;;;;;43.90;29.87;;;;;;;1.77;51.05;100968.69;5011770;28;20061;-80
2023/02/14 00:13:00;;;;;;;49.00;33.77;;;;;;;1.20;51.11;100861.72;5011536;28;20022;-80
2023/02/14 00:15:25;;;;;;;52.57;35.60;;;;;;;1.96;51.48;100994.53;5011665;28;20034;-80
2023/02/14 00:17:53;;;;;;;58.90;39.50;;;;;;;1.77;51.03;100955.69;5010200;28;20072;-80
2023/02/14 00:20:20;;;;;;;62.17;42.83;;;;;;;1.78;51.57;100982.56;5011552;28;20064;-80
2023/02/14 00:22:45;;;;;;;53.10;36.47;;;;;;;1.94;51.61;101001.59;5011234;28;20057;-80
2023/02/14 00:25:12;;;;;;;52.60;36.40;;;;;;;1.44;51.40;100919.34;5014062;28;20422;-80
2023/02/14 00:27:37;;;;;;;53.87;37.00;;;;;;;1.41;51.31;100901.31;5013638;28;20029;-80
2023/02/14 00:30:04;;;;;;;52.07;36.07;;;;;;;2.07;51.50;101017.34;5014685;28;20017;-80
2023/02/14 00:32:29;;;;;;;54.90;36.27;;;;;;;2.28;51.26;101046.59;5015235;28;20056;-80
2023/02/14 00:34:55;;;;;;;52.30;36.23;;;;;;;2.06;51.32;101037.34;5015053;28;20068;-80
2023/02/14 00:37:21;;;;;;;56.77;38.47;;;;;;;1.86;51.36;100996.81;5015185;28;20105;-80
2023/02/14 00:39:46;;;;;;;57.70;38.10;;;;;;;1.43;51.24;100922.03;5015937;28;20026;-80
2023/02/14 00:42:13;;;;;;;56.13;36.00;;;;;;;1.97;51.41;101008.38;5018526;28;20022;-80
2023/02/14 00:44:39;;;;;;;60.03;37.63;;;;;;;2.27;51.25;101048.34;5018555;28;20052;-80
2023/02/14 00:47:05;;;;;;;60.70;38.03;;;;;;;2.24;51.77;101056.34;5016753;28;20022;-80
2023/02/14 00:49:30;;;;;;;59.27;39.73;;;;;;;1.79;51.62;100979.03;5018614;28;20113;-80
2023/02/14 00:51:55;;;;;;;58.80;38.70;;;;;;;1.65;51.70;100966.78;5016116;28;20557;-80
2023/02/14 00:54:21;;;;;;;56.00;38.40;;;;;;;1.45;51.73;100935.81;5015561;28;20053;-80
2023/02/14 00:56:46;;;;;;;47.17;33.80;;;;;;;1.45;51.76;100944.44;5016854;28;20017;-80
2023/02/14 00:59:12;;;;;;;52.73;34.70;;;;;;;1.62;51.52;100953.09;5016824;28;20053;-80
2023/02/14 01:01:38;;;;;;;52.87;35.93;;;;;;;1.06;51.71;100850.41;5016738;28;20033;-80
2023/02/14 01:04:04;;;;;;;54.93;37.23;;;;;;;1.65;51.99;100963.34;5016731;28;20380;-80
2023/02/14 01:06:29;;;;;;;56.77;36.20;;;;;;;2.12;51.86;101031.78;5017646;28;20030;-80
2023/02/14 01:08:55;;;;;;;54.77;37.30;;;;;;;1.81;51.94;100995.41;5016897;28;20026;-80
2023/02/14 01:11:23;;;;;;;53.20;36.93;;;;;;;2.06;52.32;101026.09;5018405;28;20037;-80
2023/02/14 01:13:49;;;;;;;53.37;35.77;;;;;;;1.57;51.96;100968.97;5017868;28;20080;-80
2023/02/14 01:16:18;;;;;;;53.50;36.17;;;;;;;2.05;52.24;101047.88;5016599;28;20574;-80
2023/02/14 01:18:44;;;;;;;54.53;37.00;;;;;;;2.02;52.07;101027.19;5017822;28;20049;-80
2023/02/14 01:21:24;;;;;;;58.20;38.90;;;;;;;1.63;52.23;100973.00;5016576;28;20399;-80
2023/02/14 01:23:53;;;;;;;61.00;39.80;;;;;;;2.07;51.88;101030.38;5017553;28;20033;-80
2023/02/14 01:26:20;;;;;;;55.23;35.70;;;;;;;1.95;52.23;101047.53;5013527;28;20392;-80
2023/02/14 01:28:45;;;;;;;52.10;33.93;;;;;;;1.69;52.00;101003.91;5014209;28;20029;-80
2023/02/14 01:31:12;;;;;;;52.83;34.03;;;;;;;2.03;51.96;101027.09;5014125;28;20025;-80
2023/02/14 01:33:39;;;;;;;39.47;27.90;;;;;;;2.00;51.72;101029.06;5012502;28;20025;-80
2023/02/14 01:36:05;;;;;;;36.43;26.90;;;;;;;1.94;51.86;101024.19;5012743;28;20100;-80
2023/02/14 01:38:31;;;;;;;41.40;28.13;;;;;;;1.17;52.20;100952.09;5014225;28;20113;-80
2023/02/14 01:40:56;;;;;;;108.27;55.00;;;;;;;1.83;52.00;101015.22;5013758;28;20461;-80
2023/02/14 01:43:22;;;;;;;79.97;44.23;;;;;;;1.34;51.75;100964.19;5013856;28;20029;-80
2023/02/14 01:45:47;;;;;;;47.47;31.00;;;;;;;1.16;52.23;100942.63;5013764;28;20034;-80
2023/02/14 01:48:14;;;;;;;40.50;27.90;;;;;;;0.18;52.06;100772.91;5013921;28;20025;-80
2023/02/14 01:50:44;;;;;;;37.70;26.67;;;;;;;1.39;52.64;100990.78;5012110;28;20043;-80
2023/02/14 01:53:25;;;;;;;33.80;24.57;;;;;;;1.07;52.47;100943.13;5014216;28;20041;-80
2023/02/14 01:55:57;;;;;;;38.57;26.73;;;;;;;0.44;52.36;100844.25;5014630;28;20032;-80
2023/02/14 01:58:26;;;;;;;37.73;27.00;;;;;;;1.23;52.70;100990.78;5014744;28;20026;-80
2023/02/14 02:00:57;;;;;;;34.90;24.83;;;;;;;0.38;52.81;100879.19;5014567;28;20092;-80
2023/02/14 02:03:33;;;;;;;35.70;24.48;;;;;;;1.21;52.80;101008.25;5014443;28;20414;-80
2023/02/14 02:06:22;;;;;;;37.70;24.00;;;;;;;1.24;52.67;101008.91;5013514;28;20038;-80
2023/02/14 02:09:13;;;;;;;41.10;26.10;;;;;;;1.23;53.05;101007.22;5014058;28;20050;-80
2023/02/14 02:11:41;;;;;;;37.30;26.23;;;;;;;0.93;52.91;100957.69;5015801;28;20582;-80
2023/02/14 02:14:13;;;;;;;37.10;23.70;;;;;;;0.82;52.82;100920.19;5015937;28;20010;-80
2023/02/14 02:16:59;;;;;;;;;;;;;;;1.12;53.03;100999.16;5016148;28;20514;-80
2023/02/14 02:19:38;;;;;;;46.47;28.50;;;;;;;0.82;52.83;100944.44;5015520;28;19916;-80
2023/02/14 02:22:23;;;;;;;49.10;29.00;;;;;;;1.01;53.03;100953.84;5015552;28;20050;-80
2023/02/14 02:25:01;;;;;;;34.77;24.50;;;;;;;1.25;52.86;100988.94;5010833;28;20033;-80
2023/02/14 02:27:39;;;;;;;37.10;24.20;;;;;;;1.00;52.52;100937.41;5012721;28;20026;-80
2023/02/14 02:30:28;;;;;;;33.03;23.70;;;;;;;1.26;52.99;100975.84;5012807;28;20564;-80
2023/02/14 02:33:24;;;;;;;35.67;24.50;;;;;;;1.25;52.60;100978.53;5012706;28;20030;-80
2023/02/14 02:36:10;;;;;;;35.10;23.57;;;;;;;0.86;52.26;100913.91;5012496;28;20029;-80
2023/02/14 02:39:03;;;;;;;33.73;22.57;;;;;;;0.98;52.52;100943.63;5012912;28;20142;-79
2023/02/14 02:41:39;;;;;;;29.73;22.53;;;;;;;1.20;52.72;100962.34;5014464;28;20030;-80
2023/02/14 02:44:27;;;;;;;37.17;25.67;;;;;;;1.21;52.89;100967.47;5014138;28;20022;-80
2023/02/14 02:47:04;;;;;;;37.47;25.53;;;;;;;0.16;52.57;100895.06;5013793;28;20026;-80
2023/02/14 02:55:24;;;;;;;57.90;32.60;;;;;;;0.54;52.90;100887.00;5012186;28;20092;-80
2023/02/14 02:57:52;;;;;;;52.93;31.60;;;;;;;0.28;52.78;100844.22;5012131;28;20026;-80
2023/02/14 03:00:21;;;;;;;39.90;25.93;;;;;;;0.52;52.56;100879.31;5010757;28;20014;-81
2023/02/14 03:05:35;;;;;;;33.93;22.03;;;;;;;0.19;53.34;100860.28;5012538;28;20485;-80
2023/02/14 03:08:02;;;;;;;33.77;21.63;;;;;;;-1.29;53.64;100632.59;5012292;28;20117;-80
2023/02/14 03:10:32;;;;;;;33.20;22.83;;;;;;;-0.14;53.86;100805.72;5013795;28;20022;-80
2023/02/14 03:13:22;;;;;;;37.30;23.33;;;;;;;0.71;53.86;100928.53;5013917;28;20470;-80
2023/02/14 03:15:50;;;;;;;35.97;23.93;;;;;;;0.65;53.90;100936.66;5014499;28;20030;-80
2023/02/14 03:18:18;;;;;;;34.13;24.17;;;;;;;0.67;53.74;100940.03;5014601;28;20022;-80
2023/02/14 03:20:59;;;;;;;34.83;24.70;;;;;;;0.71;53.75;100946.75;5014304;28;20100;-80
2023/02/14 03:23:34;;;;;;;39.37;25.77;;;;;;;-0.13;53.65;100808.25;5013624;28;20049;-80
2023/02/14 03:26:21;;;;;;;78.23;43.13;;;;;;;0.63;53.75;100935.91;5013356;28;20495;-80
2023/02/14 03:29:04;;;;;;;42.60;27.90;;;;;;;0.22;53.95;100888.69;5013494;28;20026;-80
2023/02/14 03:31:39;;;;;;;38.10;23.97;;;;;;;0.32;53.52;100893.34;5013952;28;20022;-80
2023/02/14 03:34:31;;;;;;;35.10;23.87;;;;;;;0.55;53.74;100919.88;5013581;28;20171;-80
2023/02/14 03:36:59;;;;;;;27.97;20.20;;;;;;;0.64;53.66;100942.78;5012983;28;20083;-80
2023/02/14 03:39:31;;;;;;;30.63;21.97;;;;;;;0.06;53.52;100836.72;5013578;28;20022;-80
2023/02/14 03:42:08;;;;;;;34.38;22.45;;;;;;;-0.59;53.92;100768.25;5013501;28;20021;-80
2023/02/14 03:44:36;;;;;;;33.17;22.07;;;;;;;0.10;53.67;100843.44;5012917;28;20033;-80
2023/02/14 03:47:08;;;;;;;33.37;23.17;;;;;;;0.67;53.71;100928.78;5011593;28;20033;-80
2023/02/14 03:49:39;;;;;;;34.30;22.00;;;;;;;0.71;53.69;100932.91;5013466;28;20046;-80
2023/02/14 03:52:08;;;;;;;33.10;22.97;;;;;;;0.70;53.98;100970.22;5013544;28;20109;-80
2023/02/14 03:54:35;;;;;;;35.70;24.57;;;;;;;0.73;53.83;100938.84;5013558;28;20022;-80
2023/02/14 03:57:15;;;;;;;33.50;22.63;;;;;;;0.75;53.63;100944.84;5012626;28;20025;-80
2023/02/14 03:59:41;;;;;;;34.13;22.13;;;;;;;0.46;53.58;100878.78;5014484;28;20022;-80
2023/02/14 04:02:10;;;;;;;80.87;45.20;;;;;;;0.76;53.69;100936.13;5015425;28;20029;-80
2023/02/14 04:04:39;;;;;;;55.20;32.00;;;;;;;0.06;53.42;100834.13;5015400;28;20026;-80
2023/02/14 04:07:13;;;;;;;42.30;26.90;;;;;;;0.02;53.44;100808.41;5017168;28;20061;-80
2023/02/14 04:09:39;;;;;;;32.50;22.20;;;;;;;-0.03;53.74;100812.03;5015633;28;20045;-80
2023/02/14 04:12:05;;;;;;;32.50;22.33;;;;;;;-0.35;53.70;100773.94;5017176;28;20098;-80
2023/02/14 04:14:30;;;;;;;39.73;26.10;;;;;;;0.69;53.71;100925.19;5017285;28;20495;-80
2023/02/14 04:19:39;;;;;;;34.97;23.73;;;;;;;-0.29;53.64;100752.88;5017283;28;20036;-80
2023/02/14 04:22:05;;;;;;;35.00;23.93;;;;;;;-0.32;53.78;100760.81;5015659;28;20050;-80
2023/02/14 04:24:30;;;;;;;43.57;26.70;;;;;;;0.38;53.85;100876.59;5017271;28;20414;-80
2023/02/14 04:27:11;;;;;;;43.17;27.93;;;;;;;0.02;53.78;100798.00;5018814;28;20034;-81
2023/02/14 04:29:49;;;;;;;39.73;27.13;;;;;;;0.35;53.93;100875.91;5018996;28;20104;-80
2023/02/14 04:32:17;;;;;;;42.13;27.70;;;;;;;0.78;53.63;100905.69;5017813;28;20049;-80
2023/02/14 04:34:43;;;;;;;48.27;29.17;;;;;;;0.34;53.63;100845.66;5017849;28;20418;-80
2023/02/14 04:37:09;;;;;;;42.27;29.60;;;;;;;0.45;53.67;100853.72;5018503;28;20014;-80
2023/02/14 04:39:35;;;;;;;48.97;32.53;;;;;;;-0.04;53.60;100763.63;5016650;28;20414;-80
2023/02/14 04:42:01;;;;;;;55.77;35.37;;;;;;;0.79;53.69;100891.78;5014054;28;20503;-80
2023/02/14 04:44:27;;;;;;;52.03;34.70;;;;;;;0.76;53.75;100891.94;5015264;28;20487;-80
2023/02/14 04:46:52;;;;;;;56.97;37.70;;;;;;;0.10;53.81;100804.47;5013796;28;20022;-81
2023/02/14 04:49:18;;;;;;;53.83;38.67;;;;;;;0.83;53.59;100888.91;5015576;28;20025;-80
2023/02/14 04:51:44;;;;;;;57.60;39.33;;;;;;;-0.23;53.63;100694.59;5015118;28;20029;-80
2023/02/14 04:54:09;;;;;;;46.30;32.20;;;;;;;-0.22;53.60;100699.72;5014417;28;20045;-80
2023/02/14 04:56:34;;;;;;;55.70;34.97;;;;;;;0.71;53.68;100880.91;5018010;28;20020;-80
2023/02/14 04:59:00;;;;;;;58.50;35.03;;;;;;;-0.37;53.89;100690.16;5018584;28;20418;-80
2023/02/14 05:01:25;;;;;;;57.00;39.20;;;;;;;-0.13;53.63;100738.16;5017248;28;20022;-80
2023/02/14 05:03:51;;;;;;;58.43;41.80;;;;;;;0.19;53.89;100811.78;5019295;28;20026;-80
2023/02/14 05:06:16;;;;;;;60.37;38.97;;;;;;;0.26;54.05;100815.75;5018786;28;20026;-81
2023/02/14 05:08:41;;;;;;;75.00;47.10;;;;;;;-0.57;53.66;100705.91;5018768;28;20084;-80
2023/02/14 05:11:07;;;;;;;68.03;43.77;;;;;;;0.10;53.81;100767.28;5018558;28;20022;-81
2023/02/14 05:13:32;;;;;;;64.83;43.10;;;;;;;0.19;53.92;100795.38;5018549;28;20029;-81
2023/02/14 05:15:58;;;;;;;67.90;45.67;;;;;;;-0.20;53.59;100716.03;5020751;28;20483;-81
2023/02/14 05:18:24;;;;;;;70.03;48.53;;;;;;;0.69;54.06;100874.97;5020344;28;20034;-80
2023/02/14 05:20:51;;;;;;;72.37;47.80;;;;;;;0.05;53.62;100764.09;5020940;28;20026;-80
2023/02/14 05:23:16;;;;;;;75.10;49.53;;;;;;;-0.12;53.67;100739.00;5022270;28;20105;-81
2023/02/14 05:25:42;;;;;;;86.77;56.90;;;;;;;-0.07;53.70;100745.63;5022514;28;20057;-81
2023/02/14 05:28:09;;;;;;;78.03;51.63;;;;;;;0.70;53.88;100866.25;5017609;28;20474;-80
2023/02/14 05:30:36;;;;;;;80.57;55.23;;;;;;;0.16;53.75;100783.38;5015339;28;20025;-80
2023/02/14 05:33:02;;;;;;;74.47;52.80;;;;;;;-0.38;54.11;100719.59;5014895;28;20025;-80
2023/02/14 05:35:27;;;;;;;80.83;57.50;;;;;;;0.01;54.10;100786.78;5015394;28;20486;-81
2023/02/14 05:37:53;;;;;;;86.97;60.47;;;;;;;-0.20;53.85;100728.19;5017304;28;20061;-81
2023/02/14 05:40:18;;;;;;;88.30;64.57;;;;;;;-0.61;53.64;100686.25;5016114;28;20018;-81
2023/02/14 05:42:44;;;;;;;84.80;61.60;;;;;;;0.67;54.04;100848.22;5018682;28;20029;-81
2023/02/14 05:45:10;;;;;;;97.33;73.73;;;;;;;0.64;54.17;100847.47;5018915;28;20029;-80
2023/02/14 05:47:36;;;;;;;114.30;77.43;;;;;;;-0.39;54.01;100666.03;5020845;28;20032;-81
2023/02/14 05:50:02;;;;;;;110.63;70.90;;;;;;;0.71;54.02;100845.38;5019282;28;20026;-81
2023/02/14 05:52:27;;;;;;;106.90;75.80;;;;;;;0.42;53.67;100800.16;5014465;28;20112;-81
2023/02/14 05:54:53;;;;;;;102.23;72.37;;;;;;;0.59;53.96;100859.88;5014908;28;20010;-81
2023/02/14 05:57:18;;;;;;;107.33;72.00;;;;;;;0.74;54.02;100873.78;5013827;28;20014;-81
2023/02/14 05:59:44;;;;;;;82.90;52.50;;;;;;;0.02;53.83;100793.66;5013836;28;20517;-81
2023/02/14 06:02:09;;;;;;;88.07;54.70;;;;;;;0.57;53.72;100837.47;5013666;28;20049;-81
2023/02/14 06:04:35;;;;;;;109.97;67.07;;;;;;;-0.07;53.94;100711.88;5013135;28;20026;-81
2023/02/14 06:07:00;;;;;;;143.97;85.27;;;;;;;0.78;53.92;100869.28;5014055;28;20061;-81
2023/02/14 06:09:26;;;;;;;150.00;93.70;;;;;;;0.43;53.69;100817.44;5014988;28;20026;-81
2023/02/14 06:11:51;;;;;;;159.50;99.93;;;;;;;0.33;53.80;100785.06;5015020;28;20095;-81
2023/02/14 06:14:17;;;;;;;161.23;99.67;;;;;;;0.15;53.65;100749.72;5014209;28;20022;-81
2023/02/14 06:16:42;;;;;;;150.57;95.27;;;;;;;0.12;53.86;100732.53;5014834;28;20013;-81
2023/02/14 06:19:07;;;;;;;159.80;100.10;;;;;;;0.77;53.68;100834.66;5014376;28;20018;-81
2023/02/14 06:21:33;;;;;;;145.20;95.53;;;;;;;1.01;53.69;100852.44;5013832;28;20128;-81
2023/02/14 06:23:59;;;;;;;144.43;93.93;;;;;;;0.76;53.72;100806.16;5018368;28;20029;-81
2023/02/14 06:26:27;;;;;;;139.83;93.90;;;;;;;0.70;53.55;100770.91;5017970;28;20022;-80
2023/02/14 06:28:54;;;;;;;143.17;93.20;;;;;;;0.69;53.77;100756.25;5013057;28;20487;-80
2023/02/14 06:31:20;;;;;;;145.90;96.40;;;;;;;0.92;53.63;100797.41;5014313;28;20078;-80
2023/02/14 06:33:45;;;;;;;139.90;89.90;;;;;;;0.73;53.35;100741.31;5016249;28;20078;-80
2023/02/14 06:36:10;;;;;;;144.73;89.47;;;;;;;0.51;53.50;100682.75;5017435;28;20117;-80
2023/02/14 06:38:36;;;;;;;143.50;90.97;;;;;;;1.11;53.46;100768.59;5015330;28;20045;-80
2023/02/14 06:41:06;;;;;;;134.03;89.90;;;;;;;1.57;53.48;100864.88;5014882;28;20471;-80
2023/02/14 06:43:32;;;;;;;137.77;87.60;;;;;;;1.07;53.18;100756.69;5014617;28;20504;-80
2023/02/14 06:45:58;;;;;;;133.80;89.00;;;;;;;1.71;53.15;100851.88;5010134;28;20034;-80
2023/02/14 06:48:23;;;;;;;134.90;86.63;;;;;;;1.00;53.19;100718.97;5003669;28;20110;-80
2023/02/14 06:50:49;;;;;;;142.90;90.97;;;;;;;1.46;52.83;100802.16;4996458;28;20023;-80
2023/02/14 06:53:14;;;;;;;140.33;92.40;;;;;;;1.53;53.12;100791.31;5005235;28;20030;-80
2023/02/14 06:55:40;;;;;;;125.97;80.07;;;;;;;1.54;52.90;100785.19;5014065;28;20088;-80
2023/02/14 06:58:05;;;;;;;117.70;77.20;;;;;;;1.60;53.03;100802.22;5012301;28;20026;-80
2023/02/14 07:00:31;;;;;;;112.50;79.10;;;;;;;0.85;52.93;100644.47;5008378;28;20026;-80
2023/02/14 07:02:57;;;;;;;106.17;72.03;;;;;;;1.77;53.02;100794.25;5003217;28;20025;-80
2023/02/14 07:05:22;;;;;;;116.00;77.90;;;;;;;1.98;52.77;100809.50;5009803;28;20032;-80
2023/02/14 07:07:48;;;;;;;112.83;76.47;;;;;;;2.01;52.90;100811.94;5011693;28;20036;-81
2023/02/14 07:10:14;;;;;;;104.03;68.83;;;;;;;1.46;52.80;100717.09;5015555;28;20036;-80
2023/02/14 07:12:40;;;;;;;109.33;68.27;;;;;;;1.75;52.63;100770.06;5011584;28;20018;-80
2023/02/14 07:15:10;;;;;;;99.00;65.67;;;;;;;1.81;52.73;100774.91;5010115;28;20380;-81
2023/02/14 07:17:36;;;;;;;106.47;64.00;;;;;;;2.20;53.01;100864.59;5006163;28;20017;-80
2023/02/14 07:20:02;;;;;;;101.33;64.87;;;;;;;1.46;52.65;100701.50;5012112;28;20056;-80
2023/02/14 07:22:28;;;;;;;98.07;64.97;;;;;;;1.47;52.63;100691.94;5014259;28;20067;-80
2023/02/14 07:24:53;;;;;;;99.37;66.50;;;;;;;2.20;52.46;100822.91;5012089;28;20024;-80
2023/02/14 07:27:19;;;;;;;98.57;65.67;;;;;;;1.64;52.33;100712.59;5030237;28;20117;-80
2023/02/14 07:29:44;;;;;;;98.93;64.67;;;;;;;1.76;52.72;100706.66;5027937;28;20052;-80
2023/02/14 07:32:10;;;;;;;93.77;61.13;;;;;;;2.09;52.29;100753.22;5019105;28;20084;-80
2023/02/14 07:34:35;;;;;;;96.17;62.07;;;;;;;2.20;52.55;100747.34;5006156;28;20023;-80
2023/02/14 07:37:00;;;;;;;89.30;58.90;;;;;;;1.25;52.19;100583.94;5015066;28;20025;-80
2023/02/14 07:39:26;;;;;;;84.37;57.77;;;;;;;2.16;52.50;100709.41;5015770;28;20038;-80
2023/02/14 07:41:51;;;;;;;86.13;59.73;;;;;;;2.27;52.74;100706.16;5021438;28;20022;-80
2023/02/14 07:44:18;;;;;;;90.83;57.57;;;;;;;2.99;52.73;100806.72;5013924;28;20021;-80
2023/02/14 07:46:43;;;;;;;81.43;55.37;;;;;;;2.54;52.40;100736.50;5014415;28;20022;-80
2023/02/14 07:49:09;;;;;;;87.70;55.67;;;;;;;2.82;52.43;100769.47;5014412;28;20024;-80
2023/02/14 07:51:34;;;;;;;104.30;64.27;;;;;;;2.95;52.50;100769.53;5013342;28;20018;-80
2023/02/14 07:53:59;;;;;;;98.27;63.77;;;;;;;3.32;52.17;100827.16;5025901;28;20104;-80
2023/02/14 07:56:25;;;;;;;49.60;33.93;;;;;;;2.52;52.69;100673.22;5038441;28;20070;-80
2023/02/14 07:58:50;;;;;;;45.83;30.27;;;;;;;3.30;52.44;100764.63;5030017;28;20030;-80
2023/02/14 08:01:16;;;;;;;38.63;25.50;;;;;;;3.77;52.27;100810.25;5027349;28;20499;-80
2023/02/14 08:03:48;;;;;;;29.50;20.83;;;;;;;3.87;52.10;100782.56;5018890;28;20088;-80
2023/02/14 08:06:14;;;;;;;27.90;20.92;;;;;;;3.23;52.15;100652.91;5033185;28;20029;-80
2023/02/14 08:08:39;;;;;;;32.70;22.50;;;;;;;3.74;51.65;100726.88;5015086;28;20038;-80
2023/02/14 08:11:05;;;;;;;30.00;21.13;;;;;;;3.56;51.54;100681.09;5014650;28;20162;-80
2023/02/14 08:13:30;;;;;;;29.83;20.23;;;;;;;4.13;51.63;100738.94;5001909;28;20551;-80
2023/02/14 08:16:04;;;;;;;29.60;21.27;;;;;;;4.39;51.42;100769.31;5016415;28;20546;-80
2023/02/14 08:18:36;;;;;;;29.77;19.97;;;;;;;4.70;51.49;100798.53;5021964;28;20019;-80
2023/02/14 08:21:03;;;;;;;26.65;20.00;;;;;;;4.71;51.56;100790.59;5000523;28;20396;-80
2023/02/14 08:23:28;;;;;;;22.70;17.63;;;;;;;3.05;51.23;100525.38;5026816;28;20036;-81
2023/02/14 08:25:54;;;;;;;32.57;20.97;;;;;;;4.75;51.07;100799.06;5018729;28;20022;-81
2023/02/14 08:28:20;;;;;;;29.80;20.87;;;;;;;4.85;50.95;100794.81;5025222;28;20057;-81
2023/02/14 08:30:46;;;;;;;28.07;20.03;;;;;;;5.01;50.70;100821.56;5019728;28;20061;-81
2023/02/14 08:33:11;;;;;;;27.70;19.60;;;;;;;4.75;50.66;100770.28;5017545;28;20022;-80
2023/02/14 08:35:37;;;;;;;31.57;21.27;;;;;;;4.92;50.70;100762.03;5018600;28;20152;-81
2023/02/14 08:38:03;;;;;;;29.50;20.90;;;;;;;5.36;50.09;100831.25;5021400;28;20018;-80
2023/02/14 08:40:29;;;;;;;28.67;21.63;;;;;;;5.40;50.16;100825.69;5025403;28;20525;-80
2023/02/14 08:42:55;;;;;;;33.80;22.57;;;;;;;5.04;50.27;100768.97;5026187;28;20053;-81
2023/02/14 08:45:21;;;;;;;34.30;22.27;;;;;;;5.00;49.88;100751.84;5035870;28;20030;-81
2023/02/14 08:47:46;;;;;;;30.93;22.30;;;;;;;5.57;49.80;100831.47;5024209;28;20059;-80
2023/02/14 08:50:14;;;;;;;31.73;22.20;;;;;;;5.65;49.63;100829.94;5031696;28;20022;-81
2023/02/14 08:52:42;;;;;;;27.63;21.67;;;;;;;5.34;49.64;100780.78;5025659;28;20120;-81
2023/02/14 08:55:08;;;;;;;32.17;22.33;;;;;;;5.75;49.28;100823.03;5016662;28;20026;-80
2023/02/14 08:57:34;;;;;;;27.60;20.87;;;;;;;5.77;49.62;100815.06;5015921;28;20100;-81
2023/02/14 08:59:59;;;;;;;30.50;21.90;;;;;;;5.50;48.97;100755.13;5014260;28;20058;-80
2023/02/14 09:02:25;;;;;;;29.17;21.63;;;;;;;5.57;49.17;100758.94;5015370;28;20086;-80
2023/02/14 09:04:50;;;;;;;35.60;22.57;;;;;;;5.54;49.41;100745.25;5017009;28;20029;-81
2023/02/14 09:07:16;;;;;;;30.07;22.57;;;;;;;5.36;49.25;100703.78;5014368;28;20379;-81
2023/02/14 09:09:41;;;;;;;34.10;22.40;;;;;;;5.55;49.18;100705.81;5012399;28;20043;-80
2023/02/14 09:12:08;;;;;;;32.07;22.27;;;;;;;5.69;49.15;100713.47;5034105;28;20060;-81
2023/02/14 09:14:45;;;;;;;28.57;21.33;;;;;;;5.42;48.56;100663.19;5022406;28;20033;-80
2023/02/14 09:17:12;;;;;;;30.47;20.60;;;;;;;6.29;48.21;100788.34;5013761;28;20101;-81
2023/02/14 09:19:38;;;;;;;27.43;20.13;;;;;;;5.19;48.20;100598.63;5014673;28;20065;-80
2023/02/14 09:22:06;;;;;;;30.20;21.17;;;;;;;6.42;48.02;100788.22;5018426;28;20042;-80
2023/02/14 09:24:34;;;;;;;28.00;21.43;;;;;;;6.52;48.50;100785.72;5018773;28;20092;-81
2023/02/14 09:26:59;;;;;;;27.77;20.73;;;;;;;6.57;48.25;100800.13;5010937;28;20038;-80
2023/02/14 09:29:26;;;;;;;33.20;22.37;;;;;;;6.67;47.83;100787.13;5016057;28;20021;-80
2023/02/14 09:31:55;;;;;;;29.30;20.37;;;;;;;6.37;47.91;100733.50;5010732;28;20053;-81
2023/02/14 09:39:49;;;;;;;28.40;19.27;;;;;;;6.67;47.62;100745.97;5015534;28;20415;-80
2023/02/14 09:42:28;;;;;;;32.40;21.70;;;;;;;6.08;47.15;100640.59;5023491;28;20029;-80
2023/02/14 09:44:58;;;;;;;31.03;21.57;;;;;;;7.03;47.29;100761.50;5010489;28;20032;-81
2023/02/14 09:47:54;;;;;;;31.53;19.70;;;;;;;7.16;46.89;100789.25;5007618;28;20026;-80
2023/02/14 09:50:35;;;;;;;25.30;19.10;;;;;;;7.36;45.93;100784.16;5004206;28;20038;-81
2023/02/14 09:53:07;;;;;;;26.58;18.83;;;;;;;7.09;46.11;100711.94;5024007;28;20129;-80
2023/02/14 09:56:10;;;;;;;34.63;21.05;;;;;;;7.23;45.86;100718.66;5013989;28;20522;-81
2023/02/14 09:58:47;;;;;;;28.40;20.00;;;;;;;7.51;46.03;100762.72;5017445;28;20172;-81
2023/02/14 10:01:18;;;;;;;27.17;21.03;;;;;;;7.71;46.19;100765.47;5012455;28;20148;-81
2023/02/14 10:04:17;;;;;;;29.53;21.07;;;;;;;7.77;44.91;100750.00;5009993;28;20085;-80
2023/02/14 10:06:51;;;;;;;29.35;20.08;;;;;;;7.44;45.52;100685.38;5009992;28;20033;-80
2023/02/14 10:09:46;;;;;;;29.50;20.83;;;;;;;8.00;45.43;100748.03;5017721;28;20025;-81
2023/02/14 10:12:40;;;;;;;29.00;20.40;;;;;;;7.88;45.33;100693.88;5009772;28;20044;-81
2023/02/14 10:15:21;;;;;;;30.13;20.87;;;;;;;8.06;44.89;100707.22;5009304;28;20494;-83
2023/02/14 10:18:04;;;;;;;25.97;19.40;;;;;;;8.35;44.56;100723.16;5013953;28;20030;-81
2023/02/14 10:20:40;;;;;;;23.73;17.08;;;;;;;8.02;43.70;100654.06;4995066;28;20030;-81
2023/02/14 10:23:23;;;;;;;20.73;15.93;;;;;;;8.48;42.84;100715.84;4992251;28;20605;-80
2023/02/14 10:25:58;;;;;;;26.23;19.17;;;;;;;7.81;42.25;100604.19;4992346;28;20138;-80
2023/02/14 10:28:49;;;;;;;28.25;20.05;;;;;;;8.19;42.95;100648.16;4997737;28;20033;-80
2023/02/14 10:31:33;;;;;;;23.40;17.60;;;;;;;8.65;42.23;100688.84;5010571;28;20030;-81
2023/02/14 10:34:18;;;;;;;27.83;19.67;;;;;;;8.66;42.55;100701.03;5009060;28;20029;-81
2023/02/14 10:36:51;;;;;;;25.67;18.90;;;;;;;8.58;42.25;100664.03;5008129;28;20093;-81
2023/02/14 10:39:51;;;;;;;21.67;17.60;;;;;;;8.91;42.06;100695.22;5021143;28;20499;-81
2023/02/14 10:42:37;;;;;;;24.27;18.50;;;;;;;8.64;42.04;100633.69;5008512;28;20037;-81
2023/02/14 10:45:18;;;;;;;29.13;19.38;;;;;;;8.09;42.18;100583.34;5010847;28;20117;-80
2023/02/14 10:47:49;;;;;;;27.98;18.00;;;;;;;9.10;42.44;100689.13;5011467;28;20030;-80
2023/02/14 10:50:23;;;;;;;25.33;18.47;;;;;;;8.60;42.06;100596.28;4995963;28;20027;-79
2023/02/14 10:53:11;;;;;;;26.50;19.48;;;;;;;9.22;42.17;100676.63;4991849;28;20470;-81
2023/02/14 10:55:55;;;;;;;28.27;18.88;;;;;;;9.22;41.43;100666.09;4990917;28;20049;-80
2023/02/14 10:58:25;;;;;;;31.52;18.63;;;;;;;8.96;42.29;100636.06;5003556;28;20499;-81
2023/02/14 11:01:00;;;;;;;24.13;17.95;;;;;;;8.99;41.62;100633.13;5011541;28;20419;-81
2023/02/14 11:03:27;;;;;;;24.55;17.63;;;;;;;8.87;41.55;100577.13;5017044;28;20092;-82
2023/02/14 11:05:53;;;;;;;24.80;18.45;;;;;;;8.60;41.26;100525.22;5012644;28;20033;-81
2023/02/14 11:08:44;;;;;;;21.33;17.70;;;;;;;8.86;40.58;100535.97;5008873;28;20026;-82
2023/02/14 11:11:23;;;;;;;20.27;17.13;;;;;;;8.38;40.86;100450.03;5007722;28;20507;-79
2023/02/14 11:13:48;;;;;;;23.58;17.10;;;;;;;8.83;40.56;100508.09;5010649;28;20033;-82
2023/02/14 11:16:32;;;;;;;20.80;15.75;;;;;;;9.64;40.04;100611.16;5017345;28;20131;-82
2023/02/14 11:19:27;;;;;;;23.73;17.20;;;;;;;9.72;40.09;100629.75;5006696;28;20026;-83
2023/02/14 11:21:54;;;;;;;23.13;17.15;;;;;;;9.51;40.84;100594.84;5015208;28;20131;-81
2023/02/14 11:24:35;;;;;;;21.02;16.88;;;;;;;9.00;39.28;100508.38;5025634;28;20025;-80
2023/02/14 11:27:06;;;;;;;24.92;16.75;;;;;;;9.75;39.85;100612.78;5013313;28;20119;-81
2023/02/14 11:29:38;;;;;;;20.23;15.38;;;;;;;9.75;40.45;100600.44;5011116;28;20022;-82
2023/02/14 11:32:09;;;;;;;23.08;16.45;;;;;;;9.77;39.72;100600.28;5003662;28;20034;-82
2023/02/14 11:34:39;;;;;;;19.27;16.55;;;;;;;9.79;39.81;100593.91;5001917;28;20091;-83
2023/02/14 11:37:20;;;;;;;20.90;15.98;;;;;;;9.77;39.91;100587.09;5017006;28;20022;-81
2023/02/14 11:39:46;;;;;;;22.15;16.58;;;;;;;9.32;40.24;100510.59;5000491;28;20167;-80
2023/02/14 11:42:12;;;;;;;20.00;16.88;;;;;;;9.64;40.15;100560.22;5002961;28;20034;-80
2023/02/14 11:44:53;;;;;;;21.02;17.13;;;;;;;9.73;39.39;100586.56;5016861;28;20025;-80
2023/02/14 11:47:33;;;;;;;22.00;16.42;;;;;;;9.76;39.80;100581.00;5025516;28;20502;-80